Time;durP1;ratioP1;P1;durP2;ratioP2;P2;SDS_P1;SDS_P2;PMS_P1;PMS_P2;Temp;Humidity;BMP_temperature;BMP_pressure;BME280_temperature;BME280_humidity;BME280_pressure;Samples;Min_cycle;Max_cycle;Signal;HPM_P1;HPM_P2
2022/02/26 00:00:00;;;;;;;5.38;1.67;;;;;;;;;;6301078;28;20144;-64
2022/02/26 00:03:02;;;;;;;1.67;0.68;;;;;;;;;;6299907;28;20139;-64
2022/02/26 00:06:04;;;;;;;3.50;0.52;;;;;;;;;;6296805;28;20040;-64
2022/02/26 00:09:06;;;;;;;1.17;0.40;;;;;;;;;;6303090;28;20499;-64
2022/02/26 00:12:08;;;;;;;6.22;0.57;;;;;;;;;;6299104;28;20441;-64
2022/02/26 00:15:11;;;;;;;8.98;1.65;;;;;;;;;;6303129;28;20044;-64
2022/02/26 00:18:12;;;;;;;4.03;0.50;;;;;;;;;;6301580;28;20127;-64
2022/02/26 00:21:14;;;;;;;3.65;0.80;;;;;;;;;;6307136;28;20177;-63
2022/02/26 00:24:16;;;;;;;3.10;0.80;;;;;;;;;;6308654;28;20052;-64
2022/02/26 00:27:17;;;;;;;4.03;0.60;;;;;;;;;;6307901;28;20053;-64
2022/02/26 00:30:20;;;;;;;2.72;0.70;;;;;;;;;;6307764;28;20041;-62
2022/02/26 00:33:22;;;;;;;1.38;0.60;;;;;;;;;;6307139;28;20098;-62
2022/02/26 00:36:23;;;;;;;1.20;0.70;;;;;;;;;;6303587;28;20175;-63
2022/02/26 00:39:25;;;;;;;2.10;0.40;;;;;;;;;;6303468;28;20045;-63
2022/02/26 00:42:26;;;;;;;3.90;0.70;;;;;;;;;;6305789;28;20127;-63
2022/02/26 00:45:30;;;;;;;0.55;0.40;;;;;;;;;;6306160;28;20403;-63
2022/02/26 00:51:47;;;;;;;1.45;0.80;;;;;;;;;;6291079;28;20123;-65
2022/02/26 00:54:49;;;;;;;1.00;0.55;;;;;;;;;;6306945;28;20075;-62
2022/02/26 00:57:50;;;;;;;1.65;0.82;;;;;;;;;;6302594;28;20052;-62
2022/02/26 01:00:53;;;;;;;1.92;1.00;;;;;;;;;;6306495;28;20048;-62
2022/02/26 01:03:55;;;;;;;7.45;2.17;;;;;;;;;;6306474;28;20037;-66
2022/02/26 01:06:56;;;;;;;4.10;2.83;;;;;;;;;;6308485;28;20124;-62
2022/02/26 01:09:58;;;;;;;5.22;3.15;;;;;;;;;;6311553;28;20045;-63
2022/02/26 01:12:59;;;;;;;6.55;3.83;;;;;;;;;;6307836;28;20120;-63
2022/02/26 01:16:02;;;;;;;7.30;3.90;;;;;;;;;;6305637;28;20123;-63
2022/02/26 01:19:05;;;;;;;6.53;4.00;;;;;;;;;;6313501;28;20646;-62
2022/02/26 01:22:07;;;;;;;5.90;4.15;;;;;;;;;;6311740;28;20056;-64
2022/02/26 01:25:09;;;;;;;8.25;4.15;;;;;;;;;;6310024;28;20060;-65
2022/02/26 01:28:10;;;;;;;6.97;4.43;;;;;;;;;;6308229;28;20129;-63
2022/02/26 01:31:13;;;;;;;6.65;4.50;;;;;;;;;;6305362;28;20090;-63
2022/02/26 01:34:15;;;;;;;6.25;4.40;;;;;;;;;;6306429;28;20067;-63
2022/02/26 01:37:17;;;;;;;6.45;4.40;;;;;;;;;;6306184;28;20040;-64
2022/02/26 01:40:18;;;;;;;8.23;4.75;;;;;;;;;;6306285;28;20097;-64
2022/02/26 01:43:20;;;;;;;9.07;5.03;;;;;;;;;;6303437;28;20086;-64
2022/02/26 01:46:23;;;;;;;7.53;5.25;;;;;;;;;;6306756;28;20177;-64
2022/02/26 01:49:24;;;;;;;8.27;5.03;;;;;;;;;;6311817;28;20135;-64
2022/02/26 01:52:26;;;;;;;9.45;5.38;;;;;;;;;;6309170;28;20123;-64
2022/02/26 01:55:27;;;;;;;10.18;5.35;;;;;;;;;;6313106;28;20057;-63
2022/02/26 01:58:29;;;;;;;9.38;5.85;;;;;;;;;;6312164;28;20153;-63
2022/02/26 02:01:32;;;;;;;9.75;5.10;;;;;;;;;;6308137;28;20045;-65
2022/02/26 02:04:34;;;;;;;7.75;4.82;;;;;;;;;;6306757;28;20088;-63
2022/02/26 02:07:35;;;;;;;8.23;5.05;;;;;;;;;;6307295;28;20068;-64
2022/02/26 02:10:39;;;;;;;6.97;4.90;;;;;;;;;;6306454;28;20117;-63
2022/02/26 02:13:41;;;;;;;7.28;5.22;;;;;;;;;;6303140;28;20088;-63
2022/02/26 02:16:44;;;;;;;6.15;4.70;;;;;;;;;;6305031;28;20053;-64
2022/02/26 02:19:45;;;;;;;8.65;5.35;;;;;;;;;;6301920;28;20140;-63
2022/02/26 02:22:48;;;;;;;9.27;5.32;;;;;;;;;;6305584;28;20040;-64
2022/02/26 02:25:52;;;;;;;8.93;5.60;;;;;;;;;;6308263;28;20116;-64
2022/02/26 02:28:53;;;;;;;7.95;5.45;;;;;;;;;;6313322;28;20056;-64
2022/02/26 02:31:55;;;;;;;8.85;5.78;;;;;;;;;;6316807;28;20048;-64
2022/02/26 02:34:57;;;;;;;10.05;5.57;;;;;;;;;;6317353;28;20104;-64
2022/02/26 02:38:02;;;;;;;10.90;5.15;;;;;;;;;;6313017;28;20048;-62
2022/02/26 02:41:04;;;;;;;7.13;5.18;;;;;;;;;;6311569;28;20041;-64
2022/02/26 02:44:07;;;;;;;8.43;5.50;;;;;;;;;;6311874;28;20052;-64
2022/02/26 02:47:08;;;;;;;8.07;5.28;;;;;;;;;;6311290;28;20073;-64
2022/02/26 02:50:10;;;;;;;8.18;5.03;;;;;;;;;;6304531;28;20051;-64
2022/02/26 02:53:16;;;;;;;11.68;5.75;;;;;;;;;;6305259;28;20051;-64
2022/02/26 02:56:18;;;;;;;7.38;5.05;;;;;;;;;;6309442;28;20069;-63
2022/02/26 02:59:19;;;;;;;9.60;5.60;;;;;;;;;;6305614;28;20140;-63
2022/02/26 03:02:21;;;;;;;8.65;5.43;;;;;;;;;;6304322;28;20564;-63
2022/02/26 03:05:23;;;;;;;7.93;4.93;;;;;;;;;;6311672;28;20127;-63
2022/02/26 03:08:26;;;;;;;7.43;5.20;;;;;;;;;;6312243;28;20449;-62
2022/02/26 03:11:28;;;;;;;8.32;4.90;;;;;;;;;;6307963;28;20126;-64
2022/02/26 03:14:30;;;;;;;7.53;4.95;;;;;;;;;;6309024;28;20088;-63
2022/02/26 03:17:31;;;;;;;5.70;3.92;;;;;;;;;;6308341;28;20186;-64
2022/02/26 03:20:33;;;;;;;7.28;4.22;;;;;;;;;;6307552;28;20094;-64
2022/02/26 03:23:36;;;;;;;6.40;4.13;;;;;;;;;;6305276;28;20048;-63
2022/02/26 03:26:38;;;;;;;6.97;4.53;;;;;;;;;;6305473;28;20053;-64
2022/02/26 03:29:40;;;;;;;8.85;4.88;;;;;;;;;;6309990;28;20174;-63
2022/02/26 03:32:41;;;;;;;6.85;3.90;;;;;;;;;;6303603;28;20041;-63
2022/02/26 03:35:43;;;;;;;7.07;4.38;;;;;;;;;;6310576;28;20056;-62
2022/02/26 03:38:46;;;;;;;7.00;4.07;;;;;;;;;;6309687;28;20069;-63
2022/02/26 03:41:47;;;;;;;5.03;3.80;;;;;;;;;;6308131;28;20072;-64
2022/02/26 03:44:49;;;;;;;8.38;3.90;;;;;;;;;;6304101;28;20056;-62
2022/02/26 03:47:51;;;;;;;5.32;4.03;;;;;;;;;;6310689;28;20051;-63
2022/02/26 03:50:52;;;;;;;6.75;3.88;;;;;;;;;;6311081;28;20555;-63
2022/02/26 03:53:55;;;;;;;5.90;3.55;;;;;;;;;;6307449;28;20049;-63
2022/02/26 03:56:57;;;;;;;5.45;3.50;;;;;;;;;;6308097;28;20055;-63
2022/02/26 03:59:59;;;;;;;5.80;3.55;;;;;;;;;;6305643;28;20067;-62
2022/02/26 04:03:01;;;;;;;5.78;4.05;;;;;;;;;;6305399;28;20056;-65
2022/02/26 04:06:02;;;;;;;6.28;4.43;;;;;;;;;;6305838;28;20155;-62
2022/02/26 04:09:05;;;;;;;6.03;3.80;;;;;;;;;;6303659;28;20052;-63
2022/02/26 04:12:09;;;;;;;5.68;4.10;;;;;;;;;;6305355;28;20059;-62
2022/02/26 04:15:10;;;;;;;6.07;4.07;;;;;;;;;;6311746;28;20141;-62
2022/02/26 04:18:12;;;;;;;9.43;3.80;;;;;;;;;;6312221;28;20049;-62
2022/02/26 04:21:14;;;;;;;5.72;3.33;;;;;;;;;;6304339;28;20052;-63
2022/02/26 04:24:17;;;;;;;5.68;3.53;;;;;;;;;;6304435;28;20044;-63
2022/02/26 04:27:19;;;;;;;5.60;3.30;;;;;;;;;;6317527;28;20253;-62
2022/02/26 04:30:21;;;;;;;4.38;3.13;;;;;;;;;;6315469;28;20071;-64
2022/02/26 04:33:23;;;;;;;6.30;3.45;;;;;;;;;;6316821;28;20056;-62
2022/02/26 04:36:24;;;;;;;4.22;3.15;;;;;;;;;;6320683;28;20460;-62
2022/02/26 04:39:27;;;;;;;5.65;3.40;;;;;;;;;;6316082;28;20048;-63
2022/02/26 04:42:29;;;;;;;5.20;3.67;;;;;;;;;;6316930;28;20106;-63
2022/02/26 04:45:31;;;;;;;4.93;3.20;;;;;;;;;;6315316;28;20054;-63
2022/02/26 04:48:33;;;;;;;4.35;3.40;;;;;;;;;;6318969;28;20123;-64
2022/02/26 04:51:35;;;;;;;7.93;3.30;;;;;;;;;;6319277;28;20082;-63
2022/02/26 04:54:38;;;;;;;8.50;3.90;;;;;;;;;;6316226;28;20127;-62
2022/02/26 04:57:39;;;;;;;6.00;3.50;;;;;;;;;;6316715;28;20127;-64
2022/02/26 05:00:41;;;;;;;6.80;3.53;;;;;;;;;;6317736;28;20055;-62
2022/02/26 05:03:43;;;;;;;5.57;3.30;;;;;;;;;;6312825;28;20627;-63
2022/02/26 05:06:45;;;;;;;7.55;3.35;;;;;;;;;;6319943;28;20044;-63
2022/02/26 05:09:48;;;;;;;6.93;3.20;;;;;;;;;;6320811;28;20113;-63
2022/02/26 05:12:49;;;;;;;5.63;3.90;;;;;;;;;;6316439;28;20609;-63
2022/02/26 05:15:51;;;;;;;4.72;3.38;;;;;;;;;;6316443;28;20055;-63
2022/02/26 05:18:53;;;;;;;6.68;3.47;;;;;;;;;;6317829;28;20171;-62
2022/02/26 05:21:54;;;;;;;8.38;3.22;;;;;;;;;;6314495;28;20201;-63
2022/02/26 05:24:57;;;;;;;5.22;3.67;;;;;;;;;;6316997;28;20135;-62
2022/02/26 05:27:59;;;;;;;5.65;3.58;;;;;;;;;;6316357;28;20123;-63
2022/02/26 05:31:01;;;;;;;4.82;3.33;;;;;;;;;;6313321;28;20052;-64
2022/02/26 05:34:03;;;;;;;4.32;3.60;;;;;;;;;;6316923;28;20891;-63
2022/02/26 05:37:05;;;;;;;7.80;3.78;;;;;;;;;;6315912;28;20044;-63
2022/02/26 05:40:08;;;;;;;8.02;3.85;;;;;;;;;;6309277;28;20400;-64
2022/02/26 05:43:10;;;;;;;6.70;3.72;;;;;;;;;;6311335;28;20131;-63
2022/02/26 05:46:12;;;;;;;7.10;4.20;;;;;;;;;;6314130;28;20545;-63
2022/02/26 05:49:14;;;;;;;8.73;4.13;;;;;;;;;;6316191;28;20125;-63
2022/02/26 05:52:15;;;;;;;5.55;4.03;;;;;;;;;;6318017;28;20178;-64
2022/02/26 05:55:18;;;;;;;5.63;3.88;;;;;;;;;;6309096;28;20120;-62
2022/02/26 05:58:20;;;;;;;6.18;4.38;;;;;;;;;;6310775;28;20050;-62
2022/02/26 06:01:21;;;;;;;6.72;3.88;;;;;;;;;;6311324;28;20052;-63
2022/02/26 06:04:23;;;;;;;10.52;3.97;;;;;;;;;;6310480;28;20521;-63
2022/02/26 06:07:24;;;;;;;6.15;3.90;;;;;;;;;;6309346;28;20063;-63
2022/02/26 06:10:27;;;;;;;5.28;4.15;;;;;;;;;;6308663;28;20610;-63
2022/02/26 06:13:29;;;;;;;5.22;3.53;;;;;;;;;;6306422;28;20170;-62
2022/02/26 06:16:30;;;;;;;5.88;3.45;;;;;;;;;;6305044;28;20060;-63
2022/02/26 06:19:32;;;;;;;6.72;4.10;;;;;;;;;;6306534;28;20055;-64
2022/02/26 06:22:34;;;;;;;6.68;4.00;;;;;;;;;;6306465;28;20123;-63
2022/02/26 06:25:37;;;;;;;6.15;4.43;;;;;;;;;;6309088;28;20182;-64
2022/02/26 06:28:39;;;;;;;8.30;4.03;;;;;;;;;;6309302;28;20154;-63
2022/02/26 06:31:40;;;;;;;7.78;4.32;;;;;;;;;;6311484;28;20056;-64
2022/02/26 06:34:42;;;;;;;6.82;4.32;;;;;;;;;;6308799;28;20056;-64
2022/02/26 06:37:43;;;;;;;7.03;4.50;;;;;;;;;;6306621;28;20079;-63
2022/02/26 06:40:46;;;;;;;8.07;4.35;;;;;;;;;;6309179;28;20499;-63
2022/02/26 06:43:48;;;;;;;6.07;4.10;;;;;;;;;;6306762;28;20040;-64
2022/02/26 06:46:49;;;;;;;7.75;4.72;;;;;;;;;;6308641;28;20137;-66
2022/02/26 06:49:51;;;;;;;9.50;4.32;;;;;;;;;;6304539;28;20192;-64
2022/02/26 06:52:52;;;;;;;6.47;4.32;;;;;;;;;;6302928;28;20040;-64
2022/02/26 06:55:55;;;;;;;8.38;4.60;;;;;;;;;;6304633;28;20488;-66
2022/02/26 06:58:57;;;;;;;7.00;4.95;;;;;;;;;;6302843;28;20129;-63
2022/02/26 07:01:58;;;;;;;6.97;4.38;;;;;;;;;;6301652;28;20047;-63
2022/02/26 07:05:00;;;;;;;9.05;5.15;;;;;;;;;;6311505;28;20131;-64
2022/02/26 07:08:01;;;;;;;9.00;6.05;;;;;;;;;;6313006;28;20036;-64
2022/02/26 07:11:04;;;;;;;9.35;4.80;;;;;;;;;;6312573;28;21946;-65
2022/02/26 07:14:06;;;;;;;7.22;5.07;;;;;;;;;;6312446;28;20083;-62
2022/02/26 07:17:08;;;;;;;4.88;3.55;;;;;;;;;;6310672;28;20040;-65
2022/02/26 07:20:11;;;;;;;5.97;3.10;;;;;;;;;;6303422;28;20150;-63
2022/02/26 07:23:12;;;;;;;7.82;3.63;;;;;;;;;;6304504;28;20166;-64
2022/02/26 07:26:15;;;;;;;5.30;3.50;;;;;;;;;;6303431;28;20186;-62
2022/02/26 07:29:17;;;;;;;5.35;3.58;;;;;;;;;;6302120;28;20123;-65
2022/02/26 07:32:18;;;;;;;6.28;4.00;;;;;;;;;;6302841;28;20185;-63
2022/02/26 07:35:20;;;;;;;8.02;3.80;;;;;;;;;;6301147;28;20167;-66
2022/02/26 07:38:22;;;;;;;4.72;3.15;;;;;;;;;;6300985;28;20178;-64
2022/02/26 07:41:25;;;;;;;5.28;3.05;;;;;;;;;;6309836;28;20044;-64
2022/02/26 07:44:27;;;;;;;6.25;3.17;;;;;;;;;;6312415;28;20040;-63
2022/02/26 07:47:28;;;;;;;5.38;3.20;;;;;;;;;;6314146;28;20331;-64
2022/02/26 07:50:30;;;;;;;3.10;2.33;;;;;;;;;;6309544;28;20048;-64
2022/02/26 07:53:31;;;;;;;4.15;2.83;;;;;;;;;;6308506;28;20385;-66
2022/02/26 07:56:34;;;;;;;4.00;2.50;;;;;;;;;;6300742;28;20135;-64
2022/02/26 07:59:36;;;;;;;3.85;2.90;;;;;;;;;;6301243;28;20120;-64
2022/02/26 08:02:37;;;;;;;3.47;2.55;;;;;;;;;;6302216;28;20189;-67
2022/02/26 08:05:39;;;;;;;6.07;2.90;;;;;;;;;;6302566;28;20574;-65
2022/02/26 08:08:41;;;;;;;4.93;2.85;;;;;;;;;;6303276;28;20056;-64
2022/02/26 08:11:43;;;;;;;4.80;2.50;;;;;;;;;;6302163;28;20125;-64
2022/02/26 08:14:45;;;;;;;3.92;2.00;;;;;;;;;;6299936;28;20127;-64
2022/02/26 08:17:47;;;;;;;4.45;2.33;;;;;;;;;;6302796;28;20124;-65
2022/02/26 08:20:49;;;;;;;3.63;2.28;;;;;;;;;;6304982;28;20614;-64
2022/02/26 08:23:51;;;;;;;3.63;1.63;;;;;;;;;;6304143;28;20063;-65
2022/02/26 08:26:54;;;;;;;4.28;2.22;;;;;;;;;;6309427;28;20044;-64
2022/02/26 08:29:55;;;;;;;2.88;2.00;;;;;;;;;;6305957;28;20080;-63
2022/02/26 08:32:58;;;;;;;6.65;2.45;;;;;;;;;;6306390;28;20052;-64
2022/02/26 08:35:59;;;;;;;4.65;2.13;;;;;;;;;;6309361;28;20048;-64
2022/02/26 08:39:01;;;;;;;6.90;2.10;;;;;;;;;;6304596;28;20177;-63
2022/02/26 08:42:05;;;;;;;6.65;1.98;;;;;;;;;;6301866;28;20059;-63
2022/02/26 08:45:07;;;;;;;3.60;1.80;;;;;;;;;;6297851;28;20056;-63
2022/02/26 08:48:09;;;;;;;5.20;1.50;;;;;;;;;;6298958;28;20128;-63
2022/02/26 08:51:10;;;;;;;2.70;1.65;;;;;;;;;;6301218;28;20045;-63
2022/02/26 08:54:12;;;;;;;3.97;1.35;;;;;;;;;;6305847;28;20044;-63
2022/02/26 08:57:15;;;;;;;4.60;1.20;;;;;;;;;;6303229;28;20135;-63
2022/02/26 09:00:17;;;;;;;3.70;2.03;;;;;;;;;;6301376;28;20056;-63
2022/02/26 09:03:19;;;;;;;3.15;1.42;;;;;;;;;;6301462;28;20110;-63
2022/02/26 09:06:21;;;;;;;4.47;2.83;;;;;;;;;;6305660;28;20052;-64
2022/02/26 09:09:22;;;;;;;7.07;3.55;;;;;;;;;;6306902;28;20503;-64
2022/02/26 09:12:25;;;;;;;7.78;3.78;;;;;;;;;;6303284;28;20496;-64
2022/02/26 09:15:28;;;;;;;7.22;3.75;;;;;;;;;;6305205;28;20044;-64
2022/02/26 09:18:31;;;;;;;5.90;3.85;;;;;;;;;;6308513;28;20045;-63
2022/02/26 09:21:32;;;;;;;5.53;3.47;;;;;;;;;;6301494;28;20548;-64
2022/02/26 09:24:34;;;;;;;4.35;2.80;;;;;;;;;;6307537;28;20131;-64
2022/02/26 09:27:37;;;;;;;6.15;3.75;;;;;;;;;;6310533;28;20131;-64
2022/02/26 09:30:39;;;;;;;3.78;2.83;;;;;;;;;;6310953;28;20119;-64
2022/02/26 09:33:41;;;;;;;6.20;2.95;;;;;;;;;;6309349;28;20560;-64
2022/02/26 09:36:44;;;;;;;6.50;2.70;;;;;;;;;;6306616;28;20144;-64
2022/02/26 09:39:45;;;;;;;7.82;2.50;;;;;;;;;;6304098;28;20059;-64
2022/02/26 09:42:48;;;;;;;2.95;2.40;;;;;;;;;;6303609;28;20805;-64
2022/02/26 09:45:51;;;;;;;3.83;2.30;;;;;;;;;;6308508;28;20072;-64
2022/02/26 09:48:52;;;;;;;5.03;2.08;;;;;;;;;;6309440;28;20101;-64
2022/02/26 09:51:54;;;;;;;3.97;2.10;;;;;;;;;;6310883;28;20127;-65
2022/02/26 09:54:56;;;;;;;3.55;2.03;;;;;;;;;;6307686;28;20160;-67
2022/02/26 09:57:59;;;;;;;3.85;1.85;;;;;;;;;;6306250;28;20113;-66
2022/02/26 10:01:01;;;;;;;5.25;2.17;;;;;;;;;;6310235;28;20195;-65
2022/02/26 10:04:10;;;;;;;3.05;2.03;;;;;;;;;;6309712;28;20193;-65
2022/02/26 10:07:13;;;;;;;4.50;2.00;;;;;;;;;;6306987;28;20564;-65
2022/02/26 10:10:19;;;;;;;3.75;2.35;;;;;;;;;;6308131;28;20048;-65
2022/02/26 10:13:25;;;;;;;3.70;1.90;;;;;;;;;;6304263;28;20350;-65
2022/02/26 10:16:46;;;;;;;4.55;2.20;;;;;;;;;;6307201;28;20105;-66
2022/02/26 10:19:47;;;;;;;8.90;2.20;;;;;;;;;;6305590;28;20380;-65
2022/02/26 10:22:52;;;;;;;4.30;2.13;;;;;;;;;;6304983;28;20431;-65
2022/02/26 10:26:06;;;;;;;4.00;1.80;;;;;;;;;;6306273;28;20143;-69
2022/02/26 10:29:12;;;;;;;6.45;2.42;;;;;;;;;;6307869;28;20130;-65
2022/02/26 10:32:13;;;;;;;3.80;2.00;;;;;;;;;;6308353;28;20164;-64
2022/02/26 10:35:15;;;;;;;9.23;3.28;;;;;;;;;;6305094;28;20076;-67
2022/02/26 10:38:20;;;;;;;6.70;3.25;;;;;;;;;;6312783;28;20125;-67
2022/02/26 10:41:21;;;;;;;9.98;4.55;;;;;;;;;;6309551;28;20404;-66
2022/02/26 10:44:24;;;;;;;4.43;1.80;;;;;;;;;;6309373;28;20052;-65
2022/02/26 10:47:28;;;;;;;2.50;1.05;;;;;;;;;;6306524;28;20079;-68
2022/02/26 10:50:33;;;;;;;8.05;1.58;;;;;;;;;;6303392;28;20052;-64
2022/02/26 10:53:40;;;;;;;5.65;2.15;;;;;;;;;;6303614;28;20056;-66
2022/02/26 10:56:44;;;;;;;6.93;1.58;;;;;;;;;;6302190;28;20044;-64
2022/02/26 10:59:53;;;;;;;3.78;1.23;;;;;;;;;;6300851;28;20128;-65
2022/02/26 11:03:11;;;;;;;1.98;0.43;;;;;;;;;;6301597;28;20101;-65
2022/02/26 11:06:13;;;;;;;1.63;0.82;;;;;;;;;;6301459;28;20048;-65
2022/02/26 11:09:15;;;;;;;1.25;0.47;;;;;;;;;;6308217;28;21362;-65
2022/02/26 11:12:17;;;;;;;2.97;0.70;;;;;;;;;;6312037;28;20174;-66
2022/02/26 11:15:21;;;;;;;3.42;1.60;;;;;;;;;;6310160;28;20113;-65
2022/02/26 11:18:24;;;;;;;4.85;2.42;;;;;;;;;;6304596;28;20560;-64
2022/02/26 11:21:25;;;;;;;;;;;;;;;;;;6307140;28;20238;-64
2022/02/26 11:24:28;;;;;;;15.00;7.03;;;;;;;;;;6304703;28;20016;-64
2022/02/26 11:27:30;;;;;;;;;;;;;;;;;;6303313;28;20079;-65
2022/02/26 11:30:36;;;;;;;3.92;2.00;;;;;;;;;;6277392;28;19962;-66
2022/02/26 11:33:38;;;;;;;8.88;3.08;;;;;;;;;;6277888;28;20412;-66
2022/02/26 11:36:47;;;;;;;11.53;6.70;;;;;;;;;;6280396;28;20175;-66
2022/02/26 11:39:52;;;;;;;4.45;1.40;;;;;;;;;;6278983;28;20052;-66
2022/02/26 11:42:55;;;;;;;1.75;0.85;;;;;;;;;;6280233;28;20056;-69
2022/02/26 11:45:57;;;;;;;3.15;1.42;;;;;;;;;;6288156;28;20505;-66
2022/02/26 11:48:59;;;;;;;;;;;;;;;;;;6283523;28;20190;-65
2022/02/26 11:52:01;;;;;;;2.05;1.15;;;;;;;;;;6286019;28;19970;-67
2022/02/26 11:55:03;;;;;;;0.60;0.38;;;;;;;;;;6283151;28;20131;-65
2022/02/26 11:58:08;;;;;;;0.60;0.40;;;;;;;;;;6282380;28;20098;-65
2022/02/26 12:01:13;;;;;;;0.50;0.30;;;;;;;;;;6274350;28;20688;-66
2022/02/26 12:04:15;;;;;;;0.30;0.25;;;;;;;;;;6278140;28;20611;-63
2022/02/26 12:07:30;;;;;;;1.60;0.30;;;;;;;;;;6279356;28;20056;-64
2022/02/26 12:10:31;;;;;;;0.43;0.43;;;;;;;;;;6278364;28;20190;-66
2022/02/26 12:13:36;;;;;;;7.93;0.70;;;;;;;;;;6277899;28;20938;-64
2022/02/26 12:16:39;;;;;;;3.35;0.47;;;;;;;;;;6276024;28;20400;-63
2022/02/26 12:19:46;;;;;;;1.00;0.40;;;;;;;;;;6273066;28;20139;-67
2022/02/26 12:22:49;;;;;;;1.35;0.60;;;;;;;;;;6278661;28;20059;-65
2022/02/26 12:25:51;;;;;;;;;;;;;;;;;;6285962;28;20045;-65
2022/02/26 12:28:52;;;;;;;2.08;0.50;;;;;;;;;;6286518;28;19963;-66
2022/02/26 12:31:56;;;;;;;1.25;0.65;;;;;;;;;;6285091;28;20101;-65
2022/02/26 12:35:06;;;;;;;1.95;0.73;;;;;;;;;;6286037;28;20127;-67
2022/02/26 12:38:21;;;;;;;1.80;0.40;;;;;;;;;;6281221;28;20052;-66
2022/02/26 12:41:31;;;;;;;0.43;0.30;;;;;;;;;;6279784;28;20060;-65
2022/02/26 12:44:38;;;;;;;2.40;0.35;;;;;;;;;;6277608;28;20075;-66
2022/02/26 12:47:43;;;;;;;1.55;0.60;;;;;;;;;;6278248;28;20060;-66
2022/02/26 12:50:44;;;;;;;0.82;0.50;;;;;;;;;;6279307;28;20179;-66
2022/02/26 12:53:46;;;;;;;1.02;0.50;;;;;;;;;;6282769;28;20171;-68
2022/02/26 12:56:47;;;;;;;2.58;0.52;;;;;;;;;;6286292;28;20055;-66
2022/02/26 12:59:49;;;;;;;1.23;0.30;;;;;;;;;;6290969;28;20167;-65
2022/02/26 13:02:56;;;;;;;2.53;1.02;;;;;;;;;;6290936;28;20131;-64
2022/02/26 13:06:04;;;;;;;0.52;0.35;;;;;;;;;;6291219;28;20514;-64
2022/02/26 13:09:07;;;;;;;0.60;0.45;;;;;;;;;;6285863;28;20186;-64
2022/02/26 13:12:09;;;;;;;0.30;0.30;;;;;;;;;;6281414;28;20060;-64
2022/02/26 13:15:11;;;;;;;0.80;0.40;;;;;;;;;;6284701;28;20064;-64
2022/02/26 13:18:15;;;;;;;0.47;0.40;;;;;;;;;;6284376;28;20548;-64
2022/02/26 13:21:16;;;;;;;1.13;0.50;;;;;;;;;;6283772;28;20044;-64
2022/02/26 13:24:18;;;;;;;1.38;0.77;;;;;;;;;;6286172;28;20063;-64
2022/02/26 13:27:23;;;;;;;1.92;0.40;;;;;;;;;;6285955;28;20124;-64
2022/02/26 13:30:26;;;;;;;1.20;0.40;;;;;;;;;;6279157;28;20114;-64
2022/02/26 13:33:29;;;;;;;;;;;;;;;;;;6288575;28;20076;-63
2022/02/26 13:36:30;;;;;;;2.60;1.02;;;;;;;;;;6276527;28;20344;-63
2022/02/26 13:39:32;;;;;;;2.40;1.00;;;;;;;;;;6279995;28;20171;-64
2022/02/26 13:42:36;;;;;;;2.75;1.33;;;;;;;;;;6282506;28;20094;-65
2022/02/26 13:45:40;;;;;;;1.25;1.10;;;;;;;;;;6288662;28;20139;-66
2022/02/26 13:48:44;;;;;;;2.35;1.20;;;;;;;;;;6284941;28;20126;-65
2022/02/26 13:51:47;;;;;;;2.25;1.00;;;;;;;;;;6283652;28;20049;-65
2022/02/26 13:54:52;;;;;;;3.90;0.82;;;;;;;;;;6282575;28;20045;-66
2022/02/26 13:57:54;;;;;;;1.40;0.82;;;;;;;;;;6281582;28;20186;-65
2022/02/26 14:01:07;;;;;;;3.13;0.90;;;;;;;;;;6279429;28;20183;-69
2022/02/26 14:04:20;;;;;;;2.85;1.02;;;;;;;;;;6278586;28;20040;-69
2022/02/26 14:07:32;;;;;;;10.65;1.40;;;;;;;;;;6286902;28;20496;-67
2022/02/26 14:10:36;;;;;;;7.43;1.30;;;;;;;;;;6284966;28;20044;-68
2022/02/26 14:13:37;;;;;;;1.75;1.13;;;;;;;;;;6283847;28;20166;-67
2022/02/26 14:16:39;;;;;;;1.58;0.82;;;;;;;;;;6280224;28;20044;-67
2022/02/26 14:19:43;;;;;;;2.83;0.90;;;;;;;;;;6278613;28;20175;-67
2022/02/26 14:22:49;;;;;;;1.20;0.70;;;;;;;;;;6277484;28;20062;-68
2022/02/26 14:25:51;;;;;;;1.38;0.90;;;;;;;;;;6283612;28;20044;-66
2022/02/26 14:28:53;;;;;;;1.30;0.80;;;;;;;;;;6284646;28;20079;-66
2022/02/26 14:31:59;;;;;;;1.80;1.02;;;;;;;;;;6283137;28;20178;-68
2022/02/26 14:35:03;;;;;;;1.95;0.80;;;;;;;;;;6283063;28;20183;-66
2022/02/26 14:38:04;;;;;;;1.63;1.10;;;;;;;;;;6278772;28;20059;-66
2022/02/26 14:41:06;;;;;;;1.35;0.80;;;;;;;;;;6281851;28;20177;-66
2022/02/26 14:44:09;;;;;;;1.98;1.00;;;;;;;;;;6280567;28;20049;-66
2022/02/26 14:47:11;;;;;;;1.25;0.85;;;;;;;;;;6281388;28;20108;-66
2022/02/26 14:50:15;;;;;;;2.20;1.10;;;;;;;;;;6277753;28;20072;-66
2022/02/26 14:53:17;;;;;;;1.40;1.00;;;;;;;;;;6281616;28;20061;-66
2022/02/26 14:56:18;;;;;;;3.17;1.02;;;;;;;;;;6272236;28;20045;-66
2022/02/26 14:59:20;;;;;;;2.20;1.05;;;;;;;;;;6277401;28;20118;-67
2022/02/26 15:02:22;;;;;;;1.73;0.98;;;;;;;;;;6280040;28;20131;-66
2022/02/26 15:05:25;;;;;;;1.77;0.98;;;;;;;;;;6282120;28;20036;-66
2022/02/26 15:08:26;;;;;;;1.60;0.95;;;;;;;;;;6281084;28;20093;-66
2022/02/26 15:11:28;;;;;;;4.22;0.98;;;;;;;;;;6280888;28;20051;-66
2022/02/26 15:14:30;;;;;;;1.92;0.85;;;;;;;;;;6280900;28;20134;-66
2022/02/26 15:17:31;;;;;;;4.32;1.05;;;;;;;;;;6287718;28;20118;-66
2022/02/26 15:20:34;;;;;;;1.25;0.85;;;;;;;;;;6282428;28;20044;-66
2022/02/26 15:23:37;;;;;;;3.83;1.00;;;;;;;;;;6284109;28;20129;-66
2022/02/26 15:26:39;;;;;;;4.05;1.40;;;;;;;;;;6282556;28;20141;-66
2022/02/26 15:29:40;;;;;;;2.47;0.77;;;;;;;;;;6278943;28;20051;-66
2022/02/26 15:32:42;;;;;;;1.40;1.23;;;;;;;;;;6280624;28;20111;-66
2022/02/26 15:35:45;;;;;;;1.75;0.77;;;;;;;;;;6279350;28;20210;-67
2022/02/26 15:38:47;;;;;;;1.55;0.90;;;;;;;;;;6276980;28;20523;-66
2022/02/26 15:41:48;;;;;;;1.73;0.73;;;;;;;;;;6282232;28;20047;-66
2022/02/26 15:44:50;;;;;;;1.95;0.80;;;;;;;;;;6284813;28;20573;-66
2022/02/26 15:47:51;;;;;;;1.70;1.10;;;;;;;;;;6286848;28;20174;-67
2022/02/26 15:50:54;;;;;;;2.90;0.90;;;;;;;;;;6284987;28;20169;-66
2022/02/26 15:53:56;;;;;;;1.50;0.88;;;;;;;;;;6283964;28;20046;-66
2022/02/26 15:56:58;;;;;;;2.80;1.08;;;;;;;;;;6282958;28;20119;-66
2022/02/26 15:59:59;;;;;;;1.92;0.80;;;;;;;;;;6279491;28;20124;-66
2022/02/26 16:03:01;;;;;;;1.60;0.82;;;;;;;;;;6277575;28;20053;-66
2022/02/26 16:06:04;;;;;;;1.58;1.00;;;;;;;;;;6281466;28;20231;-66
2022/02/26 16:09:06;;;;;;;4.07;0.65;;;;;;;;;;6280495;28;20131;-66
2022/02/26 16:12:09;;;;;;;1.80;0.68;;;;;;;;;;6278671;28;20052;-66
2022/02/26 16:15:11;;;;;;;3.13;1.08;;;;;;;;;;6275854;28;20049;-66
2022/02/26 16:18:12;;;;;;;2.17;0.80;;;;;;;;;;6278148;28;20186;-66
2022/02/26 16:21:19;;;;;;;4.15;0.90;;;;;;;;;;6273640;28;20599;-66
2022/02/26 16:24:20;;;;;;;1.45;0.90;;;;;;;;;;6276570;28;20511;-66
2022/02/26 16:27:22;;;;;;;2.13;1.00;;;;;;;;;;6289462;28;20048;-66
2022/02/26 16:30:25;;;;;;;4.13;0.80;;;;;;;;;;6284577;28;20113;-66
2022/02/26 16:33:26;;;;;;;2.22;0.90;;;;;;;;;;6287255;28;20095;-66
2022/02/26 16:36:30;;;;;;;1.00;0.80;;;;;;;;;;6283577;28;20527;-66
2022/02/26 16:39:31;;;;;;;1.60;1.00;;;;;;;;;;6282916;28;20428;-68
2022/02/26 16:42:33;;;;;;;1.58;0.77;;;;;;;;;;6278449;28;20053;-66
2022/02/26 16:45:35;;;;;;;4.47;1.05;;;;;;;;;;6277585;28;20074;-66
2022/02/26 16:48:36;;;;;;;1.52;0.73;;;;;;;;;;6280581;28;20477;-66
2022/02/26 16:51:39;;;;;;;2.30;0.90;;;;;;;;;;6276167;28;20082;-65
2022/02/26 16:54:41;;;;;;;1.17;0.73;;;;;;;;;;6273247;28;20131;-64
2022/02/26 16:57:42;;;;;;;1.02;0.60;;;;;;;;;;6272150;28;20218;-64
2022/02/26 17:00:44;;;;;;;1.75;0.57;;;;;;;;;;6280972;28;20127;-65
2022/02/26 17:03:45;;;;;;;1.70;0.90;;;;;;;;;;6299809;28;20382;-64
2022/02/26 17:06:48;;;;;;;1.08;0.70;;;;;;;;;;6310314;28;20131;-64
2022/02/26 17:09:50;;;;;;;1.55;0.85;;;;;;;;;;6306190;28;20630;-64
2022/02/26 17:12:51;;;;;;;1.15;0.77;;;;;;;;;;6307669;28;20055;-64
2022/02/26 17:15:53;;;;;;;2.22;0.80;;;;;;;;;;6303502;28;20128;-64
2022/02/26 17:18:55;;;;;;;1.92;0.80;;;;;;;;;;6303840;28;20048;-64
2022/02/26 17:21:58;;;;;;;3.35;1.00;;;;;;;;;;6301250;28;20170;-64
2022/02/26 17:24:59;;;;;;;3.13;1.02;;;;;;;;;;6303042;28;20064;-64
2022/02/26 17:28:01;;;;;;;2.83;1.00;;;;;;;;;;6303912;28;20190;-64
2022/02/26 17:31:04;;;;;;;1.98;1.38;;;;;;;;;;6304767;28;20056;-64
2022/02/26 17:34:07;;;;;;;1.60;0.85;;;;;;;;;;6301630;28;20042;-64
2022/02/26 17:37:14;;;;;;;1.67;1.00;;;;;;;;;;6309596;27;20060;-64
2022/02/26 17:40:16;;;;;;;1.67;0.82;;;;;;;;;;6305008;28;20467;-66
2022/02/26 17:43:18;;;;;;;3.15;1.08;;;;;;;;;;6305173;28;20680;-64
2022/02/26 17:46:19;;;;;;;1.95;1.10;;;;;;;;;;6312435;28;20048;-64
2022/02/26 17:49:23;;;;;;;2.42;0.90;;;;;;;;;;6308488;28;20128;-65
2022/02/26 17:52:26;;;;;;;3.83;1.10;;;;;;;;;;6307028;28;20056;-65
2022/02/26 17:55:28;;;;;;;3.05;0.77;;;;;;;;;;6307180;28;20064;-64
2022/02/26 17:58:30;;;;;;;3.95;1.25;;;;;;;;;;6306782;28;20553;-64
2022/02/26 18:01:32;;;;;;;2.05;1.10;;;;;;;;;;6308694;28;20063;-64
2022/02/26 18:04:33;;;;;;;3.03;0.98;;;;;;;;;;6306918;28;20473;-64
2022/02/26 18:07:36;;;;;;;2.05;1.08;;;;;;;;;;6303744;28;20202;-64
2022/02/26 18:10:41;;;;;;;2.10;1.20;;;;;;;;;;6303878;28;20051;-64
2022/02/26 18:13:43;;;;;;;3.03;1.70;;;;;;;;;;6305830;28;20068;-64
2022/02/26 18:16:46;;;;;;;5.25;1.60;;;;;;;;;;6306186;28;20044;-64